Time;durP1;ratioP1;P1;durP2;ratioP2;P2;SDS_P1;SDS_P2;PMS_P1;PMS_P2;Temp;Humidity;BMP_temperature;BMP_pressure;BME280_temperature;BME280_humidity;BME280_pressure;Samples;Min_cycle;Max_cycle;Signal;HPM_P1;HPM_P2
2022/07/27 00:00:14;;;;;;;21.05;14.40;;;;;;;24.08;58.67;94300.53;4970893;28;20215;-83
2022/07/27 00:02:40;;;;;;;19.23;14.32;;;;;;;24.08;58.97;94309.28;4964625;28;20221;-83
2022/07/27 00:05:08;;;;;;;23.15;14.98;;;;;;;24.12;58.39;94312.13;4964611;28;20287;-85
2022/07/27 00:07:35;;;;;;;28.45;15.25;;;;;;;24.11;58.80;94314.00;4958548;28;20213;-85
2022/07/27 00:10:02;;;;;;;27.65;15.43;;;;;;;24.12;58.71;94315.56;4959561;28;20217;-87
2022/07/27 00:12:30;;;;;;;19.00;14.70;;;;;;;24.08;58.85;94317.25;4969908;28;20217;-85
2022/07/27 00:14:58;;;;;;;18.52;14.30;;;;;;;23.95;58.61;94315.50;4968327;28;20208;-85
2022/07/27 00:17:25;;;;;;;21.75;14.35;;;;;;;23.95;58.60;94310.22;4968888;28;20672;-85
2022/07/27 00:19:52;;;;;;;20.77;14.35;;;;;;;23.98;59.41;94309.56;4962951;28;20217;-84
2022/07/27 00:22:21;;;;;;;24.00;14.80;;;;;;;23.85;59.30;94315.00;4962040;28;20588;-85
2022/07/27 00:24:48;;;;;;;20.65;14.38;;;;;;;23.87;58.66;94326.09;4974843;28;20247;-84
2022/07/27 00:27:15;;;;;;;17.35;12.50;;;;;;;23.78;56.94;94323.41;4968367;28;20278;-85
2022/07/27 00:29:44;;;;;;;18.00;13.05;;;;;;;23.76;57.17;94325.59;4974679;28;20208;-85
2022/07/27 00:32:11;;;;;;;18.48;13.85;;;;;;;23.79;57.31;94325.00;4961875;28;20654;-85
2022/07/27 00:34:38;;;;;;;19.98;14.40;;;;;;;23.82;57.59;94327.03;4972823;28;20201;-86
2022/07/27 00:37:05;;;;;;;24.67;13.77;;;;;;;23.78;58.27;94333.28;4968472;28;20249;-86
2022/07/27 00:39:32;;;;;;;20.50;13.95;;;;;;;23.85;58.15;94338.91;4968754;28;20205;-86
2022/07/27 00:41:59;;;;;;;25.38;14.38;;;;;;;23.82;57.97;94335.00;4956042;28;20225;-86
2022/07/27 00:44:30;;;;;;;20.13;14.85;;;;;;;23.81;58.29;94341.38;4962373;28;20232;-84
2022/07/27 00:46:59;;;;;;;25.67;15.20;;;;;;;23.82;58.54;94350.13;4968983;28;20208;-86
2022/07/27 00:49:27;;;;;;;23.00;15.07;;;;;;;23.84;58.59;94345.31;4968315;28;20223;-85
2022/07/27 00:51:54;;;;;;;26.60;15.48;;;;;;;23.75;59.06;94334.69;4956456;28;20237;-86
2022/07/27 00:54:22;;;;;;;24.52;15.43;;;;;;;23.77;59.22;94348.41;4974569;28;20596;-85
2022/07/27 00:56:50;;;;;;;20.08;14.48;;;;;;;23.70;59.12;94332.94;4969299;28;20216;-85
2022/07/27 00:59:17;;;;;;;27.63;16.52;;;;;;;23.71;58.68;94341.69;4973835;28;20221;-86
2022/07/27 01:01:43;;;;;;;18.40;14.55;;;;;;;23.63;58.74;94345.09;4973757;28;20225;-86
2022/07/27 01:04:12;;;;;;;21.85;14.85;;;;;;;23.60;59.18;94343.03;4974394;28;20216;-86
2022/07/27 01:06:38;;;;;;;24.48;15.18;;;;;;;23.63;59.23;94343.22;4963326;28;20201;-87
2022/07/27 01:11:50;;;;;;;24.27;15.02;;;;;;;23.56;59.67;94334.13;4962863;28;20253;-85
2022/07/27 01:14:17;;;;;;;22.40;14.75;;;;;;;23.54;60.40;94339.75;4977470;28;20208;-86
2022/07/27 01:16:45;;;;;;;20.92;15.93;;;;;;;23.48;60.50;94340.19;4974251;28;20731;-87
2022/07/27 01:19:14;;;;;;;20.75;14.85;;;;;;;23.46;60.86;94340.47;4968345;28;20746;-87
2022/07/27 01:21:43;;;;;;;17.58;14.70;;;;;;;23.41;61.54;94345.13;4974214;28;20257;-86
2022/07/27 01:24:10;;;;;;;18.38;14.77;;;;;;;23.41;60.50;94345.13;4968155;28;20259;-85
2022/07/27 01:26:38;;;;;;;20.63;14.20;;;;;;;23.36;60.62;94339.94;4973087;28;20295;-86
2022/07/27 01:29:05;;;;;;;16.30;14.07;;;;;;;23.35;61.12;94354.31;4963952;28;20668;-86
2022/07/27 01:31:32;;;;;;;20.75;14.38;;;;;;;23.33;60.67;94362.56;4967027;28;20275;-87
2022/07/27 01:33:59;;;;;;;21.35;14.88;;;;;;;23.23;60.76;94351.41;4973676;28;20215;-86
2022/07/27 01:36:26;;;;;;;17.90;14.27;;;;;;;23.25;60.64;94347.38;4959791;28;20220;-86
2022/07/27 01:38:55;;;;;;;18.30;14.48;;;;;;;23.28;60.87;94352.06;4971681;28;20243;-86
2022/07/27 01:41:21;;;;;;;19.98;13.60;;;;;;;23.16;60.45;94344.69;4963351;28;20221;-85
2022/07/27 01:43:48;;;;;;;19.13;14.30;;;;;;;23.20;60.02;94357.34;4973770;28;20216;-87
2022/07/27 01:46:16;;;;;;;22.15;13.95;;;;;;;23.15;59.38;94353.72;4974028;28;20220;-86
2022/07/27 01:48:43;;;;;;;19.42;13.73;;;;;;;23.13;60.47;94357.75;4973644;28;20683;-86
2022/07/27 01:51:10;;;;;;;18.80;13.82;;;;;;;23.11;61.01;94359.94;4971916;28;20263;-87
2022/07/27 01:53:37;;;;;;;15.93;12.75;;;;;;;23.03;60.48;94352.72;4968754;28;20744;-86
2022/07/27 01:56:09;;;;;;;16.23;13.25;;;;;;;23.07;59.51;94358.97;4972347;28;20315;-86
2022/07/27 01:58:36;;;;;;;14.80;11.75;;;;;;;23.02;58.96;94353.78;4963015;28;20209;-84
2022/07/27 02:01:04;;;;;;;12.93;9.93;;;;;;;23.16;54.24;94357.94;4966809;28;20202;-84
2022/07/27 02:03:30;;;;;;;10.20;8.02;;;;;;;23.38;50.61;94354.47;4966950;28;20696;-86
2022/07/27 02:05:57;;;;;;;10.35;7.47;;;;;;;23.63;48.64;94358.34;4965144;28;20221;-85
2022/07/27 02:08:24;;;;;;;8.95;7.47;;;;;;;23.84;48.33;94354.03;4969220;28;20208;-86
2022/07/27 02:13:37;;;;;;;9.15;7.20;;;;;;;24.10;47.29;94359.44;4966381;28;20195;-85
2022/07/27 02:16:04;;;;;;;9.30;7.57;;;;;;;24.18;47.63;94354.16;4966876;28;20231;-86
2022/07/27 02:18:31;;;;;;;11.73;7.63;;;;;;;24.25;47.28;94357.16;4972751;28;20212;-87
2022/07/27 02:20:58;;;;;;;11.15;7.63;;;;;;;24.26;47.32;94361.38;4966721;28;20235;-86
2022/07/27 02:23:24;;;;;;;9.55;7.47;;;;;;;24.34;46.69;94362.47;4973264;28;20232;-86
2022/07/27 02:25:51;;;;;;;10.82;7.28;;;;;;;24.56;46.60;94372.19;4974324;28;20205;-86
2022/07/27 02:28:18;;;;;;;10.50;7.43;;;;;;;24.60;46.63;94363.28;4973498;28;20218;-85
2022/07/27 02:30:46;;;;;;;9.32;7.15;;;;;;;24.70;45.52;94372.81;4972726;28;20287;-85
2022/07/27 02:33:13;;;;;;;9.93;7.35;;;;;;;24.71;45.38;94356.56;4971852;28;20196;-86
2022/07/27 02:35:40;;;;;;;14.20;7.45;;;;;;;24.86;45.49;94368.63;4972544;28;20205;-88
2022/07/27 02:38:07;;;;;;;9.40;7.00;;;;;;;24.88;45.59;94368.31;4966511;28;20634;-85
2022/07/27 02:40:34;;;;;;;10.95;7.32;;;;;;;24.77;45.38;94365.16;4964758;28;20212;-86
2022/07/27 02:43:01;;;;;;;13.05;7.75;;;;;;;24.69;45.21;94373.91;4975422;28;20718;-88
2022/07/27 02:45:28;;;;;;;12.30;8.43;;;;;;;24.62;45.70;94370.94;4969363;28;20212;-87
2022/07/27 02:47:56;;;;;;;16.10;8.52;;;;;;;24.59;45.62;94374.25;4973591;28;20255;-88
2022/07/27 02:50:23;;;;;;;13.48;8.55;;;;;;;24.56;46.13;94372.97;4964188;28;20207;-85
2022/07/27 02:52:50;;;;;;;9.73;8.15;;;;;;;24.53;45.91;94373.59;4960392;28;20205;-85
2022/07/27 02:55:16;;;;;;;11.18;8.27;;;;;;;24.44;46.24;94375.47;4962368;28;20219;-85
2022/07/27 02:57:43;;;;;;;14.25;8.43;;;;;;;24.42;46.78;94382.94;4972241;28;20212;-85
2022/07/27 03:00:14;;;;;;;11.32;8.32;;;;;;;24.37;46.93;94377.00;4966245;28;20211;-85
2022/07/27 03:02:41;;;;;;;13.10;8.63;;;;;;;24.31;47.29;94381.69;4966236;28;20212;-86
2022/07/27 03:05:11;;;;;;;8.70;7.68;;;;;;;24.29;47.24;94386.53;4968702;28;20209;-86
2022/07/27 03:07:38;;;;;;;9.63;7.72;;;;;;;24.32;47.35;94388.56;4965605;28;20554;-85
2022/07/27 03:10:06;;;;;;;12.77;8.32;;;;;;;24.25;48.13;94388.25;4965804;28;20208;-85
2022/07/27 03:12:33;;;;;;;14.23;7.90;;;;;;;24.27;48.77;94389.50;4956908;28;20201;-85
2022/07/27 03:15:00;;;;;;;11.35;8.30;;;;;;;24.21;48.56;94396.03;4968289;28;20284;-85
2022/07/27 03:17:27;;;;;;;15.52;8.65;;;;;;;24.13;48.78;94388.84;4971609;28;20213;-85
2022/07/27 03:19:54;;;;;;;10.15;7.95;;;;;;;24.15;48.84;94399.97;4966012;28;20212;-86
2022/07/27 03:22:22;;;;;;;13.38;8.73;;;;;;;24.05;48.93;94405.50;4963656;28;20228;-86
2022/07/27 03:24:49;;;;;;;12.77;8.05;;;;;;;24.01;48.91;94404.53;4969315;28;20200;-85
2022/07/27 03:27:16;;;;;;;15.73;8.50;;;;;;;24.00;48.93;94404.88;4967714;28;20204;-85
2022/07/27 03:29:43;;;;;;;18.83;8.23;;;;;;;24.01;48.73;94403.78;4969860;28;20561;-86
2022/07/27 03:32:09;;;;;;;13.45;7.88;;;;;;;24.06;48.75;94400.97;4961520;28;20655;-85
2022/07/27 03:34:36;;;;;;;11.45;8.27;;;;;;;23.91;48.56;94406.69;4963665;28;20637;-79
2022/07/27 03:37:03;;;;;;;13.00;8.00;;;;;;;23.82;48.99;94397.91;4967320;28;20208;-80
2022/07/27 03:39:31;;;;;;;13.77;8.48;;;;;;;23.84;49.46;94407.13;4971471;28;20211;-79
2022/07/27 03:41:58;;;;;;;11.55;8.45;;;;;;;23.79;50.07;94411.81;4964951;28;20233;-78
2022/07/27 03:44:25;;;;;;;12.13;8.70;;;;;;;23.69;49.67;94403.00;4970589;28;20215;-79
2022/07/27 03:46:52;;;;;;;15.00;8.60;;;;;;;23.62;49.89;94405.34;4965328;28;20215;-79
2022/07/27 03:49:19;;;;;;;16.75;8.48;;;;;;;23.46;50.22;94403.38;4958833;28;20205;-80
2022/07/27 03:51:46;;;;;;;20.40;8.80;;;;;;;23.30;50.74;94412.75;4971281;28;20244;-78
2022/07/27 03:54:13;;;;;;;16.80;9.52;;;;;;;23.16;51.14;94416.28;4964637;28;20216;-79
2022/07/27 03:56:41;;;;;;;17.48;9.68;;;;;;;23.09;52.01;94405.31;4970742;28;20582;-79
2022/07/27 03:59:08;;;;;;;17.02;9.10;;;;;;;23.11;52.53;94408.44;4971467;28;20209;-78
2022/07/27 04:01:35;;;;;;;20.80;9.30;;;;;;;23.13;52.85;94410.78;4970513;28;20240;-78
2022/07/27 04:04:02;;;;;;;14.10;8.63;;;;;;;23.17;53.25;94409.13;4965414;28;20663;-79
2022/07/27 04:06:29;;;;;;;13.40;8.45;;;;;;;23.13;53.77;94410.78;4968421;28;20207;-79
2022/07/27 04:08:56;;;;;;;13.98;8.63;;;;;;;23.02;54.75;94412.91;4927704;28;20216;-79
2022/07/27 04:11:23;;;;;;;14.40;7.95;;;;;;;22.91;55.61;94421.41;4926360;28;20213;-79
2022/07/27 04:13:52;;;;;;;15.45;8.30;;;;;;;22.90;55.75;94414.53;4947649;28;20202;-79
2022/07/27 04:16:19;;;;;;;14.30;8.15;;;;;;;22.78;57.00;94409.75;4948738;28;20265;-79
2022/07/27 04:18:46;;;;;;;12.77;8.30;;;;;;;22.73;56.89;94412.53;4952919;28;20205;-79
2022/07/27 04:21:14;;;;;;;13.38;7.65;;;;;;;22.73;57.07;94422.34;4955324;28;20206;-79
2022/07/27 04:23:42;;;;;;;16.05;7.90;;;;;;;22.84;57.27;94424.47;4947459;28;20607;-79
2022/07/27 04:26:09;;;;;;;14.20;7.38;;;;;;;22.88;57.82;94419.34;4951500;28;20704;-78
2022/07/27 04:28:36;;;;;;;22.83;7.97;;;;;;;22.96;58.55;94424.72;4970863;28;20211;-79
2022/07/27 04:31:04;;;;;;;12.75;7.60;;;;;;;23.00;58.87;94423.00;4970891;28;20209;-79
2022/07/27 04:33:31;;;;;;;13.85;8.23;;;;;;;23.13;59.24;94419.53;4958416;28;20209;-79
2022/07/27 04:35:58;;;;;;;16.20;7.82;;;;;;;23.23;59.92;94428.34;4958089;28;20747;-78
2022/07/27 04:38:25;;;;;;;11.85;7.22;;;;;;;23.18;60.29;94432.66;4970235;28;20200;-79
2022/07/27 04:40:52;;;;;;;11.25;7.78;;;;;;;23.15;60.92;94427.97;4951963;28;20209;-78
2022/07/27 04:43:19;;;;;;;15.25;8.23;;;;;;;23.13;61.57;94421.41;4970845;28;20240;-79
2022/07/27 04:45:45;;;;;;;15.23;8.50;;;;;;;23.13;61.60;94435.44;4964178;28;20218;-79
2022/07/27 04:48:14;;;;;;;17.25;7.90;;;;;;;23.30;61.81;94434.00;4958535;28;20201;-78
2022/07/27 04:50:41;;;;;;;18.92;7.63;;;;;;;23.37;61.79;94439.66;4971007;28;20244;-79
2022/07/27 04:53:09;;;;;;;16.48;7.93;;;;;;;23.27;62.29;94432.72;4971109;28;20216;-81
2022/07/27 04:55:36;;;;;;;12.27;7.93;;;;;;;23.30;62.43;94447.25;4971039;28;20201;-81
2022/07/27 04:58:03;;;;;;;16.23;8.07;;;;;;;23.28;63.10;94444.91;4974074;28;20349;-81
2022/07/27 05:00:30;;;;;;;18.88;8.80;;;;;;;23.31;62.77;94452.25;4974376;28;20212;-81
2022/07/27 05:02:56;;;;;;;15.10;7.95;;;;;;;23.46;62.69;94453.81;4973850;28;20235;-81
2022/07/27 05:05:25;;;;;;;17.83;8.75;;;;;;;23.41;63.49;94459.22;4965247;28;20234;-81
2022/07/27 05:07:51;;;;;;;20.83;9.30;;;;;;;23.50;63.29;94460.84;4973480;28;20217;-81
2022/07/27 05:10:19;;;;;;;20.38;9.32;;;;;;;23.63;63.31;94464.50;4960283;28;20212;-79
2022/07/27 05:12:45;;;;;;;15.25;8.27;;;;;;;23.60;63.47;94457.94;4968073;28;20204;-80
2022/07/27 05:15:12;;;;;;;11.73;7.95;;;;;;;23.73;62.82;94462.38;4972625;28;20588;-81
2022/07/27 05:17:39;;;;;;;16.63;8.55;;;;;;;23.71;63.47;94466.44;4967310;28;20215;-80
2022/07/27 05:20:07;;;;;;;16.08;8.27;;;;;;;23.71;63.99;94464.56;4954714;28;20197;-79
2022/07/27 05:22:35;;;;;;;15.95;8.27;;;;;;;23.74;64.41;94460.50;4953670;28;20233;-78
2022/07/27 05:25:02;;;;;;;14.73;8.50;;;;;;;23.76;64.51;94458.31;4956454;28;20204;-80
2022/07/27 05:27:29;;;;;;;14.88;9.15;;;;;;;23.77;64.78;94462.56;4957705;28;20205;-75
2022/07/27 05:29:56;;;;;;;14.57;8.63;;;;;;;23.80;64.70;94461.16;4958487;28;20667;-78
2022/07/27 05:32:24;;;;;;;15.38;8.48;;;;;;;23.72;65.59;94457.38;4956261;28;20194;-78
2022/07/27 05:34:51;;;;;;;19.60;8.70;;;;;;;23.64;66.07;94461.53;4954373;28;20229;-78
2022/07/27 05:37:18;;;;;;;18.75;8.82;;;;;;;23.77;65.94;94467.88;4958820;28;20193;-76
2022/07/27 05:39:46;;;;;;;13.35;8.30;;;;;;;23.89;65.57;94459.34;4971085;28;20200;-78
2022/07/27 05:42:13;;;;;;;18.60;8.80;;;;;;;23.79;66.07;94455.06;4965511;28;20690;-79
2022/07/27 05:44:40;;;;;;;21.08;8.85;;;;;;;24.18;65.89;94459.66;4973763;28;20212;-81
2022/07/27 05:47:07;;;;;;;15.48;8.98;;;;;;;24.54;64.37;94468.19;4947267;28;20217;-85
2022/07/27 05:49:33;;;;;;;17.38;8.93;;;;;;;24.75;63.36;94469.16;4953930;28;20703;-80
2022/07/27 05:52:00;;;;;;;16.42;8.80;;;;;;;24.87;62.11;94470.47;4935041;28;20751;-80
2022/07/27 05:54:27;;;;;;;14.77;8.32;;;;;;;25.01;61.86;94471.09;4934225;29;21000;-78
2022/07/27 05:56:55;;;;;;;16.27;8.30;;;;;;;25.09;61.32;94475.63;4930045;29;20222;-78
2022/07/27 05:59:22;;;;;;;14.57;8.13;;;;;;;25.23;60.87;94481.56;4927101;29;20218;-78
2022/07/27 06:01:49;;;;;;;18.33;8.90;;;;;;;25.20;60.24;94479.53;4935179;29;20233;-78
2022/07/27 06:04:15;;;;;;;13.15;7.72;;;;;;;25.15;60.35;94475.16;4935067;29;20237;-78
2022/07/27 06:09:26;;;;;;;19.13;8.93;;;;;;;25.14;60.74;94478.13;4932279;29;20258;-77
2022/07/27 06:11:54;;;;;;;17.50;9.13;;;;;;;25.15;61.32;94474.38;4937384;29;20218;-77
2022/07/27 06:14:21;;;;;;;16.60;8.90;;;;;;;25.07;60.43;94472.50;4930657;29;20439;-78
2022/07/27 06:16:48;;;;;;;15.27;8.75;;;;;;;25.08;61.42;94472.19;4929456;29;20206;-77
2022/07/27 06:19:15;;;;;;;19.27;8.52;;;;;;;25.15;61.37;94471.72;4931811;29;20689;-78
2022/07/27 06:21:42;;;;;;;13.02;8.32;;;;;;;25.17;60.58;94470.31;4934120;29;20277;-79
2022/07/27 06:24:09;;;;;;;17.25;8.88;;;;;;;25.17;60.06;94472.19;4931403;29;20252;-75
2022/07/27 06:26:36;;;;;;;24.35;8.65;;;;;;;25.42;58.80;94474.06;4935443;29;20206;-85
2022/07/27 06:29:05;;;;;;;16.58;8.07;;;;;;;25.54;57.93;94479.53;4932457;29;20644;-84
2022/07/27 06:31:32;;;;;;;18.17;9.13;;;;;;;25.52;58.23;94479.06;4926241;29;20210;-84
2022/07/27 06:33:58;;;;;;;15.95;7.70;;;;;;;25.69;57.85;94478.25;4929551;29;20220;-85
2022/07/27 06:36:25;;;;;;;14.60;8.30;;;;;;;25.86;57.16;94475.56;4930395;29;20210;-85
2022/07/27 06:38:53;;;;;;;19.05;8.38;;;;;;;25.99;56.15;94481.78;4935772;29;20210;-85
2022/07/27 06:41:20;;;;;;;16.88;8.52;;;;;;;26.06;56.56;94498.84;4931139;29;20225;-85
2022/07/27 06:43:47;;;;;;;8.98;7.93;;;;;;;25.90;57.17;94497.81;4932378;29;20234;-86
2022/07/27 06:46:15;;;;;;;13.70;8.48;;;;;;;25.82;57.31;94494.06;4935545;29;20708;-85
2022/07/27 06:48:42;;;;;;;15.55;8.02;;;;;;;25.70;57.45;94483.28;4931004;29;20210;-85
2022/07/27 06:51:09;;;;;;;14.63;8.60;;;;;;;25.65;58.04;94475.47;4941707;28;20700;-84
2022/07/27 06:53:36;;;;;;;15.00;8.45;;;;;;;25.71;58.39;94484.06;4951249;28;20205;-86
2022/07/27 06:56:07;;;;;;;14.00;8.38;;;;;;;25.76;58.27;94482.03;4949235;28;20205;-86
2022/07/27 06:58:36;;;;;;;16.83;8.40;;;;;;;25.80;57.69;94485.59;4950637;28;20205;-85
2022/07/27 07:01:04;;;;;;;12.52;8.63;;;;;;;25.90;57.50;94482.59;4950544;28;20351;-85
2022/07/27 07:03:39;;;;;;;13.00;8.40;;;;;;;26.07;56.67;94484.44;4953950;28;20221;-85
2022/07/27 07:06:06;;;;;;;13.73;8.07;;;;;;;26.03;55.82;94456.88;4950540;28;20204;-87
2022/07/27 07:08:33;;;;;;;14.40;8.23;;;;;;;26.27;55.58;94472.31;4949768;28;20690;-85
2022/07/27 07:10:59;;;;;;;15.80;8.98;;;;;;;26.40;55.37;94476.66;4947908;28;20677;-86
2022/07/27 07:13:27;;;;;;;13.15;7.82;;;;;;;26.18;54.69;94467.00;4952721;28;20240;-89
2022/07/27 07:15:54;;;;;;;15.55;8.50;;;;;;;26.30;55.24;94474.34;4949272;28;20292;-85
2022/07/27 07:18:22;;;;;;;13.43;7.78;;;;;;;26.39;54.56;94477.75;4948568;28;20319;-86
2022/07/27 07:20:50;;;;;;;12.32;8.07;;;;;;;26.40;53.13;94466.00;4949868;28;20252;-83
2022/07/27 07:23:17;;;;;;;11.57;7.80;;;;;;;26.51;54.11;94472.50;4954819;28;20617;-85
2022/07/27 07:25:44;;;;;;;10.93;8.25;;;;;;;26.65;53.37;94466.94;4959105;28;20206;-84
2022/07/27 07:28:11;;;;;;;11.55;8.15;;;;;;;26.64;54.13;94466.16;4951770;28;20209;-88
2022/07/27 07:30:38;;;;;;;19.17;8.02;;;;;;;26.57;53.29;94470.44;4947710;28;20333;-85
2022/07/27 07:33:05;;;;;;;14.55;8.18;;;;;;;26.37;54.06;94447.97;4950523;28;20201;-84
2022/07/27 07:35:32;;;;;;;17.08;8.40;;;;;;;26.66;53.89;94463.19;4952173;28;20219;-81
2022/07/27 07:38:00;;;;;;;14.23;8.15;;;;;;;26.77;52.00;94464.34;4944084;28;20650;-83
2022/07/27 07:40:27;;;;;;;11.45;7.90;;;;;;;26.79;51.63;94462.94;4947143;28;20299;-81
2022/07/27 07:42:56;;;;;;;19.73;8.27;;;;;;;26.92;51.48;94467.28;4949168;28;20235;-80
2022/07/27 07:45:23;;;;;;;15.75;8.98;;;;;;;27.00;51.33;94461.09;4946630;28;20646;-85
2022/07/27 07:47:52;;;;;;;16.38;8.50;;;;;;;27.08;50.99;94462.13;4947021;28;20664;-81
2022/07/27 07:50:22;;;;;;;13.10;8.13;;;;;;;27.22;51.55;94462.63;4944350;28;20587;-82
2022/07/27 07:52:50;;;;;;;12.45;8.10;;;;;;;27.30;51.40;94463.69;4927017;29;20230;-82
2022/07/27 07:55:21;;;;;;;13.10;8.63;;;;;;;27.39;50.16;94461.69;4926571;29;20202;-80
2022/07/27 07:57:48;;;;;;;12.80;8.38;;;;;;;27.41;49.38;94470.19;4926526;29;20218;-81
2022/07/27 08:00:16;;;;;;;12.43;7.75;;;;;;;27.44;48.27;94466.88;4927048;29;20232;-81
2022/07/27 08:02:45;;;;;;;14.50;8.13;;;;;;;27.47;48.90;94471.56;4932914;29;20213;-81
2022/07/27 08:05:12;;;;;;;16.55;8.43;;;;;;;27.55;48.71;94473.38;4925437;29;20314;-80
2022/07/27 08:07:39;;;;;;;18.88;8.52;;;;;;;27.61;48.27;94469.38;4929476;29;20205;-81
2022/07/27 08:10:07;;;;;;;18.73;8.25;;;;;;;27.70;48.55;94461.28;4927445;29;20213;-79
2022/07/27 08:12:36;;;;;;;11.60;8.40;;;;;;;27.76;48.31;94468.00;4929434;29;20697;-81
2022/07/27 08:15:03;;;;;;;18.92;9.10;;;;;;;27.74;47.98;94462.97;4927123;29;20661;-80
2022/07/27 08:17:30;;;;;;;24.95;8.68;;;;;;;27.81;47.35;94452.53;4925823;29;20708;-82
2022/07/27 08:19:57;;;;;;;14.10;8.45;;;;;;;27.97;46.51;94458.00;4925943;29;20206;-82
2022/07/27 08:22:24;;;;;;;11.18;8.25;;;;;;;28.05;46.06;94462.50;4924839;29;20214;-82
2022/07/27 08:24:51;;;;;;;10.10;7.47;;;;;;;28.14;45.38;94460.50;4930576;29;20237;-81
2022/07/27 08:27:18;;;;;;;16.38;7.97;;;;;;;28.36;45.79;94459.28;4926537;29;20585;-82
2022/07/27 08:29:46;;;;;;;13.10;7.93;;;;;;;28.51;44.66;94455.97;4928966;28;20265;-80
2022/07/27 08:32:13;;;;;;;11.75;7.85;;;;;;;28.49;43.91;94460.84;4930729;29;20206;-82
2022/07/27 08:34:40;;;;;;;16.83;7.65;;;;;;;28.60;44.97;94443.25;4930735;29;20198;-81
2022/07/27 08:37:07;;;;;;;9.98;8.00;;;;;;;28.67;44.75;94451.50;4928247;29;20220;-81
2022/07/27 08:39:34;;;;;;;10.80;8.00;;;;;;;28.68;44.67;94453.88;4933111;29;20677;-80
2022/07/27 08:42:03;;;;;;;16.65;8.02;;;;;;;28.74;44.95;94443.72;4931771;29;20210;-81
2022/07/27 08:44:30;;;;;;;14.65;8.73;;;;;;;28.77;44.84;94443.03;4934609;29;20320;-80
2022/07/27 08:47:01;;;;;;;15.27;8.32;;;;;;;28.88;44.73;94443.34;4935766;29;20221;-81
2022/07/27 08:49:29;;;;;;;11.30;8.00;;;;;;;28.92;44.30;94449.59;4931891;29;20233;-81
2022/07/27 08:51:56;;;;;;;11.05;8.25;;;;;;;28.97;44.00;94439.41;4946347;28;20241;-81
2022/07/27 08:54:25;;;;;;;12.52;8.07;;;;;;;29.09;43.89;94436.69;4950888;28;20254;-82
2022/07/27 08:56:52;;;;;;;14.15;7.47;;;;;;;29.27;43.68;94438.00;4952293;28;20711;-81
2022/07/27 08:59:19;;;;;;;13.00;7.85;;;;;;;29.45;43.06;94441.16;4954494;28;20313;-79
2022/07/27 09:01:46;;;;;;;9.57;8.10;;;;;;;29.38;41.76;94435.59;4952598;28;20216;-78
2022/07/27 09:04:14;;;;;;;17.15;7.60;;;;;;;29.38;42.46;94438.28;4953922;28;20232;-79
2022/07/27 09:06:43;;;;;;;9.38;7.13;;;;;;;29.46;40.00;94429.34;4949716;28;20228;-78
2022/07/27 09:09:10;;;;;;;10.50;7.97;;;;;;;29.49;42.26;94433.22;4954526;28;20212;-78
2022/07/27 09:11:37;;;;;;;12.38;7.38;;;;;;;29.44;39.73;94420.84;4952746;28;20209;-78
2022/07/27 09:14:06;;;;;;;10.23;7.80;;;;;;;29.55;41.62;94421.16;4953818;28;20205;-78
2022/07/27 09:16:34;;;;;;;12.07;7.97;;;;;;;29.80;40.09;94420.69;4956434;28;20213;-80
2022/07/27 09:19:04;;;;;;;14.05;8.23;;;;;;;30.04;39.77;94425.13;4955406;28;20240;-80
2022/07/27 09:21:33;;;;;;;15.35;8.40;;;;;;;30.32;39.68;94420.44;4951099;28;20210;-78
2022/07/27 09:24:08;;;;;;;10.13;7.50;;;;;;;30.36;38.97;94421.28;4952110;28;20565;-80
2022/07/27 09:26:36;;;;;;;10.70;8.65;;;;;;;30.38;39.17;94420.97;4953677;28;20280;-78
2022/07/27 09:29:05;;;;;;;13.02;8.30;;;;;;;30.53;38.02;94422.09;4954489;28;20217;-79
2022/07/27 09:31:40;;;;;;;11.90;8.75;;;;;;;30.80;37.64;94424.59;4950913;28;20216;-79
2022/07/27 09:34:09;;;;;;;11.63;8.30;;;;;;;31.09;37.29;94426.00;4951335;28;20196;-79
2022/07/27 09:36:50;;;;;;;12.43;8.27;;;;;;;31.28;36.08;94425.25;4954199;28;20225;-80
2022/07/27 09:39:19;;;;;;;8.70;7.80;;;;;;;31.12;36.09;94427.22;4952035;28;20213;-77
2022/07/27 09:41:47;;;;;;;10.35;8.00;;;;;;;31.24;36.45;94427.06;4955853;28;20212;-79
2022/07/27 09:44:15;;;;;;;16.63;8.13;;;;;;;31.33;36.31;94428.44;4948848;28;20224;-79
2022/07/27 09:46:44;;;;;;;11.77;7.75;;;;;;;31.50;36.34;94419.19;4950542;28;20219;-78
2022/07/27 09:49:27;;;;;;;10.60;8.18;;;;;;;31.52;35.98;94418.81;4934786;28;20695;-78
2022/07/27 09:51:56;;;;;;;13.00;7.93;;;;;;;31.65;36.72;94423.69;4950840;28;20241;-77
2022/07/27 09:54:24;;;;;;;10.95;8.35;;;;;;;31.70;36.90;94420.69;4946379;28;20209;-77
2022/07/27 09:56:59;;;;;;;15.40;8.15;;;;;;;31.86;36.09;94413.28;4946877;28;20214;-78
2022/07/27 09:59:26;;;;;;;13.98;7.80;;;;;;;31.91;36.06;94409.53;4948770;28;20237;-78
2022/07/27 10:01:54;;;;;;;17.35;8.18;;;;;;;31.98;35.22;94410.44;4950401;28;20210;-78
2022/07/27 10:04:20;;;;;;;14.60;7.85;;;;;;;32.24;34.14;94409.72;4949247;28;20237;-76
2022/07/27 10:06:47;;;;;;;18.58;11.18;;;;;;;32.29;34.20;94406.75;4949227;28;20212;-78
2022/07/27 10:09:18;;;;;;;12.88;8.68;;;;;;;32.23;34.30;94410.88;4946921;28;20261;-78
2022/07/27 10:11:46;;;;;;;10.60;8.27;;;;;;;32.28;34.42;94399.81;4947536;28;20209;-77
2022/07/27 10:14:13;;;;;;;24.95;8.25;;;;;;;32.26;34.36;94395.94;4950054;28;20213;-78
2022/07/27 10:16:41;;;;;;;11.15;7.88;;;;;;;32.47;34.26;94394.31;4948267;28;20205;-79
2022/07/27 10:19:13;;;;;;;11.38;7.70;;;;;;;32.60;33.13;94392.22;4949175;28;20210;-78
2022/07/27 10:21:44;;;;;;;12.18;7.55;;;;;;;32.33;34.14;94404.88;4948073;28;20207;-78
2022/07/27 10:24:23;;;;;;;10.85;8.50;;;;;;;32.61;33.40;94401.09;4946874;28;20225;-77
2022/07/27 10:26:51;;;;;;;21.70;8.10;;;;;;;32.91;33.17;94397.25;4949795;28;20209;-78
2022/07/27 10:29:20;;;;;;;11.63;9.52;;;;;;;33.12;33.19;94399.50;4947992;28;20217;-74
2022/07/27 10:31:58;;;;;;;9.07;8.18;;;;;;;33.36;32.74;94395.53;4949411;28;20653;-79
2022/07/27 10:34:37;;;;;;;11.40;8.43;;;;;;;33.54;31.98;94402.66;4945038;28;20209;-78
2022/07/27 10:37:11;;;;;;;13.55;9.25;;;;;;;33.53;31.88;94393.03;4947867;28;20209;-77
2022/07/27 10:39:41;;;;;;;13.07;8.30;;;;;;;33.73;32.05;94390.16;4945626;28;20211;-77
2022/07/27 10:42:27;;;;;;;11.82;8.35;;;;;;;33.78;31.68;94389.81;4945674;28;20225;-77
2022/07/27 10:45:04;;;;;;;12.52;8.50;;;;;;;34.09;31.80;94392.84;4945853;28;21472;-78
2022/07/27 10:47:37;;;;;;;13.23;8.27;;;;;;;34.10;30.68;94388.22;4947705;28;20221;-77
2022/07/27 10:50:23;;;;;;;11.05;7.93;;;;;;;34.16;30.80;94384.03;4952353;28;20205;-77
2022/07/27 10:52:52;;;;;;;12.52;7.55;;;;;;;34.19;31.58;94391.38;4949490;28;20213;-78
2022/07/27 10:55:43;;;;;;;17.85;8.35;;;;;;;34.34;31.07;94384.16;4948488;28;20355;-78
2022/07/27 10:58:51;;;;;;;12.43;8.57;;;;;;;34.57;30.40;94385.50;4950542;28;20217;-78
2022/07/27 11:01:20;;;;;;;12.30;8.48;;;;;;;34.75;29.84;94380.97;4949743;28;20213;-79
2022/07/27 11:03:51;;;;;;;13.95;8.82;;;;;;;34.80;29.87;94374.44;4945398;28;20205;-79
2022/07/27 11:06:31;;;;;;;10.80;8.57;;;;;;;35.03;30.10;94372.25;4945907;28;20656;-78
2022/07/27 11:09:00;;;;;;;9.85;8.00;;;;;;;35.28;29.50;94377.75;4948245;28;20232;-81
2022/07/27 11:11:28;;;;;;;14.27;8.50;;;;;;;35.28;28.68;94373.13;4946879;28;20676;-79
2022/07/27 11:13:59;;;;;;;11.18;8.02;;;;;;;35.11;29.54;94370.38;4947287;28;20635;-79
2022/07/27 11:16:29;;;;;;;12.25;8.90;;;;;;;35.22;29.27;94366.53;4946466;28;20623;-78
2022/07/27 11:19:00;;;;;;;12.07;8.52;;;;;;;35.03;28.91;94369.53;4947557;28;20210;-78
2022/07/27 11:21:29;;;;;;;13.63;8.90;;;;;;;34.83;29.80;94367.50;4947845;28;20922;-80
2022/07/27 11:23:58;;;;;;;12.25;9.40;;;;;;;34.90;29.76;94364.81;4950433;28;20293;-80
2022/07/27 11:26:28;;;;;;;15.10;8.52;;;;;;;34.71;29.40;94353.19;4946964;28;20217;-79
2022/07/27 11:28:55;;;;;;;12.20;9.55;;;;;;;34.78;28.99;94359.78;4948577;28;20209;-78
2022/07/27 11:31:23;;;;;;;9.88;8.70;;;;;;;34.88;29.01;94356.34;4948321;28;20213;-79
2022/07/27 11:33:52;;;;;;;10.48;8.23;;;;;;;35.35;28.63;94344.56;4946077;28;20212;-74
2022/07/27 11:36:20;;;;;;;14.48;8.27;;;;;;;35.67;27.87;94361.69;4947416;28;20209;-83